Time;durP1;ratioP1;P1;durP2;ratioP2;P2;SDS_P1;SDS_P2;PMS_P1;PMS_P2;Temp;Humidity;BMP_temperature;BMP_pressure;BME280_temperature;BME280_humidity;BME280_pressure;Samples;Min_cycle;Max_cycle;Signal;HPM_P1;HPM_P2
2023/05/18 00:04:45;;;;;;;;;;;;;;;6.49;100.00;98143.94;18573582;32;19965;-57
2023/05/18 00:14:48;;;;;;;;;;;;;;;6.34;100.00;98144.38;18573066;32;19964;-56
2023/05/18 00:24:50;;;;;;;;;;;;;;;6.20;100.00;98133.03;18572300;32;20314;-55
2023/05/18 00:34:53;;;;;;;;;;;;;;;6.08;100.00;98130.31;18571977;32;19975;-55
2023/05/18 00:44:55;;;;;;;;;;;;;;;5.94;100.00;98115.41;18571085;32;19957;-56
2023/05/18 00:54:59;;;;;;;;;;;;;;;5.83;100.00;98117.00;18569595;32;19976;-56
2023/05/18 01:05:02;;;;;;;;;;;;;;;5.74;100.00;98116.53;18570374;32;19993;-55
2023/05/18 01:15:12;;;;;;;;;;;;;;;5.69;100.00;98107.53;18569609;32;19971;-55
2023/05/18 01:25:39;;;;;;;;;;;;;;;5.56;100.00;98112.03;18569303;32;20352;-55
2023/05/18 01:35:48;;;;;;;;;;;;;;;5.47;100.00;98110.69;18568158;31;19993;-56
2023/05/18 01:45:54;;;;;;;;;;;;;;;5.41;100.00;98098.16;18567232;32;20002;-56
2023/05/18 01:55:58;;;;;;;;;;;;;;;5.34;100.00;98097.44;18567156;32;19998;-55
2023/05/18 02:06:00;;;;;;;;;;;;;;;5.23;100.00;98090.97;18566656;32;19986;-57
2023/05/18 02:16:03;;;;;;;;;;;;;;;5.13;100.00;98080.78;18565529;32;19969;-56
2023/05/18 02:26:05;;;;;;;;;;;;;;;5.00;100.00;98067.53;18564778;32;20272;-56
2023/05/18 02:36:12;;;;;;;;;;;;;;;4.83;100.00;98065.44;18550433;32;19961;-56
2023/05/18 02:46:15;;;;;;;;;;;;;;;4.73;100.00;98065.16;18549026;32;20290;-55
2023/05/18 02:56:17;;;;;;;;;;;;;;;4.69;100.00;98062.09;18563232;32;20310;-55
2023/05/18 03:06:22;;;;;;;;;;;;;;;4.52;100.00;98053.84;18562950;32;19953;-56
2023/05/18 03:16:27;;;;;;;;;;;;;;;4.37;100.00;98054.19;18562605;32;19961;-56
2023/05/18 03:26:30;;;;;;;;;;;;;;;4.29;100.00;98064.31;18560934;32;20240;-56
2023/05/18 03:36:34;;;;;;;;;;;;;;;4.16;100.00;98065.28;18534024;32;19948;-57
2023/05/18 03:46:36;;;;;;;;;;;;;;;4.15;100.00;98063.63;18546465;32;19968;-56
2023/05/18 03:56:38;;;;;;;;;;;;;;;4.19;100.00;98062.16;18560741;32;19996;-56
2023/05/18 04:06:41;;;;;;;;;;;;;;;4.20;100.00;98071.81;18546101;32;19963;-55
2023/05/18 04:16:44;;;;;;;;;;;;;;;4.21;100.00;98076.16;18559767;32;19956;-56
2023/05/18 04:26:47;;;;;;;;;;;;;;;4.33;100.00;98087.78;18559926;32;19953;-56
2023/05/18 04:36:53;;;;;;;;;;;;;;;4.54;100.00;98094.59;18555108;32;19993;-57
2023/05/18 04:46:55;;;;;;;;;;;;;;;4.67;100.00;98095.50;18571137;32;19991;-57
2023/05/18 04:56:58;;;;;;;;;;;;;;;4.95;100.00;98099.53;18570645;32;19972;-56
2023/05/18 05:07:01;;;;;;;;;;;;;;;5.19;100.00;98106.69;18569846;32;20294;-57
2023/05/18 05:17:03;;;;;;;;;;;;;;;5.43;100.00;98112.19;18569316;32;19971;-56
2023/05/18 05:27:06;;;;;;;;;;;;;;;5.70;100.00;98127.91;18554655;32;19957;-56
2023/05/18 05:37:09;;;;;;;;;;;;;;;6.04;100.00;98131.00;18568130;32;20473;-56
2023/05/18 05:47:13;;;;;;;;;;;;;;;6.59;100.00;98140.66;18566881;32;19949;-56
2023/05/18 05:57:16;;;;;;;;;;;;;;;7.01;100.00;98135.19;18566844;32;19975;-55
2023/05/18 06:07:19;;;;;;;;;;;;;;;7.26;100.00;98137.62;18566354;31;19956;-56
2023/05/18 06:17:22;;;;;;;;;;;;;;;7.60;100.00;98139.63;18565630;32;19985;-55
2023/05/18 06:27:25;;;;;;;;;;;;;;;8.03;100.00;98137.44;18550839;32;19949;-56
2023/05/18 06:37:27;;;;;;;;;;;;;;;8.34;100.00;98144.19;18550546;32;19971;-56
2023/05/18 06:47:30;;;;;;;;;;;;;;;8.71;100.00;98153.72;18563524;32;20336;-56
2023/05/18 06:57:32;;;;;;;;;;;;;;;9.01;100.00;98147.16;18562686;32;19980;-55
2023/05/18 07:07:36;;;;;;;;;;;;;;;9.46;100.00;98155.03;18548359;32;20335;-54
2023/05/18 07:17:39;;;;;;;;;;;;;;;9.73;100.00;98154.28;18562148;32;20308;-56
2023/05/18 07:27:41;;;;;;;;;;;;;;;10.24;100.00;98158.63;18547740;32;19986;-56
2023/05/18 07:37:45;;;;;;;;;;;;;;;10.77;100.00;98162.34;18561147;31;19966;-56
2023/05/18 07:47:47;;;;;;;;;;;;;;;11.18;100.00;98149.06;18560965;32;19993;-56
2023/05/18 07:57:51;;;;;;;;;;;;;;;11.61;100.00;98150.91;18560513;32;20358;-56
2023/05/18 08:07:54;;;;;;;;;;;;;;;12.08;100.00;98149.19;18566046;32;19957;-56
2023/05/18 08:17:56;;;;;;;;;;;;;;;12.67;100.00;98153.28;18572893;32;19982;-56
2023/05/18 08:27:59;;;;;;;;;;;;;;;12.82;95.44;98158.69;18571905;32;19996;-55
2023/05/18 08:38:02;;;;;;;;;;;;;;;13.10;93.67;98158.41;18571278;31;19961;-57
2023/05/18 08:48:09;;;;;;;;;;;;;;;13.66;87.16;98152.03;18557180;31;19975;-57
2023/05/18 08:58:16;;;;;;;;;;;;;;;13.81;79.58;98138.34;18556331;32;19975;-56
2023/05/18 09:08:19;;;;;;;;;;;;;;;14.16;77.69;98133.81;18570062;32;20018;-55
2023/05/18 09:18:22;;;;;;;;;;;;;;;14.74;79.67;98132.31;18568784;32;19989;-56
2023/05/18 09:28:34;;;;;;;;;;;;;;;15.02;74.65;98136.16;18569107;32;19996;-56
2023/05/18 09:38:38;;;;;;;;;;;;;;;15.47;68.10;98125.03;18554468;31;19948;-55
2023/05/18 09:48:43;;;;;;;;;;;;;;;16.00;74.17;98131.47;18567587;32;19952;-57
2023/05/18 09:58:46;;;;;;;;;;;;;;;16.12;60.04;98131.84;18552372;32;19952;-57
2023/05/18 10:08:49;;;;;;;;;;;;;;;15.86;70.43;98112.31;18566410;32;20007;-57
2023/05/18 10:18:54;;;;;;;;;;;;;;;16.08;66.18;98117.19;18551412;32;19953;-57
2023/05/18 10:28:58;;;;;;;;;;;;;;;16.83;64.64;98104.50;18564933;32;20291;-57
2023/05/18 10:39:01;;;;;;;;;;;;;;;17.58;62.25;98099.81;18549442;31;19990;-56
2023/05/18 10:49:11;;;;;;;;;;;;;;;17.85;63.23;98103.63;18564028;32;20315;-58
2023/05/18 10:59:19;;;;;;;;;;;;;;;18.82;61.70;98102.44;18563226;32;19985;-58
2023/05/18 11:09:23;;;;;;;;;;;;;;;19.53;56.16;98098.09;18562420;32;19990;-57
2023/05/18 11:19:30;;;;;;;;;;;;;;;18.92;53.97;98096.72;18562131;32;20250;-56
2023/05/18 11:29:35;;;;;;;;;;;;;;;18.48;49.98;98098.38;18547576;32;20271;-57
2023/05/18 11:39:54;;;;;;;;;;;;;;;18.41;56.40;98087.84;18560354;32;19964;-57
2023/05/18 11:50:05;;;;;;;;;;;;;;;18.00;56.01;98088.81;18560511;32;19961;-57
2023/05/18 12:00:11;;;;;;;;;;;;;;;18.24;54.10;98094.00;18560815;32;20313;-57
2023/05/18 12:10:15;;;;;;;;;;;;;;;17.98;58.71;98095.72;18560284;32;19981;-57
2023/05/18 12:20:23;;;;;;;;;;;;;;;17.52;58.58;98092.03;18559920;32;19991;-58
2023/05/18 12:30:33;;;;;;;;;;;;;;;17.98;67.63;98091.06;18559428;32;20009;-57
2023/05/18 12:40:45;;;;;;;;;;;;;;;18.27;62.83;98093.38;18559074;31;20294;-57
2023/05/18 12:50:49;;;;;;;;;;;;;;;18.55;61.80;98087.78;18559276;32;19979;-58
2023/05/18 13:00:52;;;;;;;;;;;;;;;18.98;58.70;98082.88;18570161;32;20298;-58
2023/05/18 13:10:59;;;;;;;;;;;;;;;19.16;59.21;98072.81;18569816;32;19952;-58
2023/05/18 13:21:06;;;;;;;;;;;;;;;19.48;50.09;98074.38;18569210;31;20008;-58
2023/05/18 13:31:09;;;;;;;;;;;;;;;19.77;51.07;98070.22;18568492;32;19952;-58
2023/05/18 13:41:14;;;;;;;;;;;;;;;19.16;54.44;98068.16;18553913;31;20376;-58
2023/05/18 13:51:17;;;;;;;;;;;;;;;18.88;56.87;98059.31;18567369;32;20277;-57
2023/05/18 14:01:21;;;;;;;;;;;;;;;18.57;60.29;98057.37;18566870;32;20020;-58
2023/05/18 14:11:24;;;;;;;;;;;;;;;17.82;61.57;98054.19;18565567;32;19965;-58
2023/05/18 14:21:27;;;;;;;;;;;;;;;18.25;61.73;98049.09;18551254;32;20294;-58
2023/05/18 14:31:29;;;;;;;;;;;;;;;18.01;55.11;98038.47;18564811;32;19953;-56
2023/05/18 14:41:33;;;;;;;;;;;;;;;17.74;61.04;98036.59;18563650;32;19983;-57
2023/05/18 14:51:37;;;;;;;;;;;;;;;17.72;56.85;98039.63;18563437;32;19990;-57
2023/05/18 15:01:45;;;;;;;;;;;;;;;18.22;57.70;98033.28;18562963;32;19960;-57
2023/05/18 15:11:49;;;;;;;;;;;;;;;18.39;63.47;98029.88;18562313;31;19989;-57
2023/05/18 15:21:52;;;;;;;;;;;;;;;17.89;54.84;98028.03;18561287;32;20326;-57
2023/05/18 15:31:55;;;;;;;;;;;;;;;17.43;60.25;98034.50;18561555;32;19945;-57
2023/05/18 15:41:58;;;;;;;;;;;;;;;16.92;58.25;98017.25;18560930;31;19968;-57
2023/05/18 15:52:01;;;;;;;;;;;;;;;16.72;62.79;98023.88;18560738;32;19971;-57
2023/05/18 16:02:04;;;;;;;;;;;;;;;16.70;59.28;98031.56;18546572;32;19975;-58
2023/05/18 16:12:07;;;;;;;;;;;;;;;16.48;61.80;98024.03;18560034;32;20024;-57
2023/05/18 16:22:10;;;;;;;;;;;;;;;16.42;62.46;98028.78;18546030;32;20024;-57
2023/05/18 16:32:15;;;;;;;;;;;;;;;16.40;67.76;98028.25;18568727;32;20313;-57
2023/05/18 16:42:19;;;;;;;;;;;;;;;16.13;64.81;98031.72;18571390;31;20344;-57
2023/05/18 16:52:22;;;;;;;;;;;;;;;15.74;62.96;98028.97;18570887;32;19961;-57
2023/05/18 17:02:25;;;;;;;;;;;;;;;15.40;64.35;98029.19;18556286;31;19986;-57
2023/05/18 17:12:30;;;;;;;;;;;;;;;15.12;69.30;98033.66;18569955;32;20367;-56
2023/05/18 17:22:33;;;;;;;;;;;;;;;14.93;71.83;98030.88;18569696;32;19957;-56
2023/05/18 17:32:38;;;;;;;;;;;;;;;14.81;75.55;98032.06;18568630;32;19975;-56
2023/05/18 17:42:41;;;;;;;;;;;;;;;14.81;74.09;98039.44;18567271;32;19982;-57
2023/05/18 17:52:43;;;;;;;;;;;;;;;14.76;72.78;98036.75;18553428;32;19953;-56
2023/05/18 18:02:46;;;;;;;;;;;;;;;14.58;75.51;98037.19;18567092;32;20007;-56
2023/05/18 18:12:49;;;;;;;;;;;;;;;14.35;80.14;98032.50;18566211;32;19991;-56
2023/05/18 18:22:53;;;;;;;;;;;;;;;14.11;84.29;98033.22;18565726;32;19971;-57
2023/05/18 18:32:58;;;;;;;;;;;;;;;13.90;95.09;98044.25;18565334;32;19960;-56
2023/05/18 18:43:04;;;;;;;;;;;;;;;13.60;100.00;98049.91;18564197;32;20344;-58
2023/05/18 18:53:10;;;;;;;;;;;;;;;13.37;100.00;98047.56;18549404;32;20000;-56
2023/05/18 19:03:13;;;;;;;;;;;;;;;13.15;100.00;98061.47;18563317;32;20280;-56
2023/05/18 19:13:16;;;;;;;;;;;;;;;12.90;100.00;98075.13;18562832;32;19956;-56
2023/05/18 19:23:25;;;;;;;;;;;;;;;12.72;100.00;98085.47;18562300;32;20015;-56
2023/05/18 19:33:29;;;;;;;;;;;;;;;12.55;100.00;98096.59;18561742;32;19979;-56
2023/05/18 19:43:33;;;;;;;;;;;;;;;12.41;100.00;98109.09;18561137;32;19953;-56
2023/05/18 19:53:38;;;;;;;;;;;;;;;12.26;100.00;98109.88;18560954;32;19997;-55
2023/05/18 20:03:42;;;;;;;;;;;;;;;12.12;100.00;98112.31;18566063;32;20226;-56
2023/05/18 20:13:47;;;;;;;;;;;;;;;12.02;100.00;98118.53;18573587;32;19953;-56
2023/05/18 20:23:51;;;;;;;;;;;;;;;11.92;100.00;98121.19;18572946;32;19945;-56
2023/05/18 20:33:56;;;;;;;;;;;;;;;11.85;100.00;98114.16;18572450;32;19968;-56
2023/05/18 20:44:00;;;;;;;;;;;;;;;11.77;100.00;98125.50;18571411;32;19963;-56
2023/05/18 20:54:04;;;;;;;;;;;;;;;11.69;100.00;98117.87;18557729;32;19988;-56
2023/05/18 21:04:09;;;;;;;;;;;;;;;11.62;100.00;98111.88;18570506;32;19971;-55
2023/05/18 21:14:15;;;;;;;;;;;;;;;11.59;100.00;98120.56;18569223;32;20286;-56
2023/05/18 21:24:18;;;;;;;;;;;;;;;11.56;100.00;98111.06;18569329;32;19961;-56
2023/05/18 21:34:22;;;;;;;;;;;;;;;11.56;100.00;98113.75;18568883;32;19992;-56
2023/05/18 21:44:26;;;;;;;;;;;;;;;11.48;100.00;98115.12;18553713;32;19981;-56
2023/05/18 21:54:29;;;;;;;;;;;;;;;11.47;100.00;98107.22;18567835;32;19952;-55
2023/05/18 22:04:34;;;;;;;;;;;;;;;11.49;100.00;98103.19;18567298;32;19975;-56
2023/05/18 22:14:38;;;;;;;;;;;;;;;11.47;100.00;98108.06;18566151;32;19976;-56
2023/05/18 22:24:43;;;;;;;;;;;;;;;11.45;100.00;98102.06;18565550;32;19948;-56
2023/05/18 22:34:46;;;;;;;;;;;;;;;11.42;100.00;98091.78;18564965;31;19956;-55
2023/05/18 22:44:50;;;;;;;;;;;;;;;11.38;100.00;98087.97;18564159;32;19953;-55
2023/05/18 22:54:53;;;;;;;;;;;;;;;11.31;100.00;98080.09;18563794;32;19995;-54
2023/05/18 23:04:56;;;;;;;;;;;;;;;11.25;100.00;98074.91;18563405;32;19960;-56
2023/05/18 23:15:02;;;;;;;;;;;;;;;11.17;100.00;98074.34;18562778;32;19975;-56
2023/05/18 23:25:09;;;;;;;;;;;;;;;11.11;100.00;98055.66;18562038;31;20310;-56
2023/05/18 23:35:13;;;;;;;;;;;;;;;11.02;100.00;98052.66;18561263;32;20296;-55
2023/05/18 23:45:16;;;;;;;;;;;;;;;10.96;100.00;98049.09;18560931;32;19960;-54
2023/05/18 23:55:23;;;;;;;;;;;;;;;10.91;100.00;98046.38;18561000;32;20333;-55
